createdAt,value
2022-08-11T00:02:30.876Z,99.90
2022-08-11T00:05:01.460Z,99.90
2022-08-11T00:07:29.167Z,99.90
2022-08-11T00:09:57.144Z,99.90
2022-08-11T00:12:24.359Z,99.90
2022-08-11T00:15:02.172Z,99.90
2022-08-11T00:17:32.972Z,99.90
2022-08-11T00:20:14.812Z,99.90
2022-08-11T00:22:45.377Z,99.90
2022-08-11T00:25:20.743Z,99.90
2022-08-11T00:27:49.058Z,99.90
2022-08-11T00:30:16.942Z,99.90
2022-08-11T00:32:56.463Z,99.90
2022-08-11T00:35:50.909Z,99.90
2022-08-11T00:38:16.804Z,99.90
2022-08-11T00:40:59.829Z,99.90
2022-08-11T00:44:08.169Z,99.90
2022-08-11T00:46:46.519Z,99.90
2022-08-11T00:49:53.983Z,99.90
2022-08-11T00:52:39.971Z,99.90
2022-08-11T00:55:33.437Z,99.90
2022-08-11T00:58:45.172Z,99.90
2022-08-11T01:01:17.979Z,99.90
2022-08-11T01:04:03.747Z,99.90
2022-08-11T01:07:08.325Z,99.90
2022-08-11T01:09:50.330Z,99.90
2022-08-11T01:12:46.084Z,99.90
2022-08-11T01:15:56.003Z,99.90
2022-08-11T01:18:44.689Z,99.90
2022-08-11T01:21:47.109Z,99.90
2022-08-11T01:24:38.538Z,99.90
2022-08-11T01:27:22.630Z,99.90
2022-08-11T01:30:08.601Z,99.90
2022-08-11T01:33:09.542Z,99.90
2022-08-11T01:36:07.234Z,99.90
2022-08-11T01:39:11.874Z,99.90
2022-08-11T01:42:03.748Z,99.90
2022-08-11T01:45:03.242Z,99.90
2022-08-11T01:47:54.352Z,99.90
2022-08-11T01:50:39.313Z,99.90
2022-08-11T01:53:16.175Z,99.90
2022-08-11T01:56:12.539Z,99.90
2022-08-11T01:59:03.437Z,99.90
2022-08-11T02:01:52.035Z,99.90
2022-08-11T02:04:47.013Z,99.90
2022-08-11T02:07:18.328Z,99.90
2022-08-11T02:09:54.650Z,99.90
2022-08-11T02:12:27.397Z,99.90
2022-08-11T02:15:12.241Z,99.90
2022-08-11T02:18:16.569Z,99.90
2022-08-11T02:21:21.048Z,99.90
2022-08-11T02:24:05.239Z,99.90
2022-08-11T02:26:41.901Z,99.90
2022-08-11T02:29:45.028Z,99.90
2022-08-11T02:32:44.093Z,99.90
2022-08-11T02:35:29.112Z,99.90
2022-08-11T02:38:16.972Z,99.90
2022-08-11T02:40:43.828Z,99.90
2022-08-11T02:43:38.035Z,99.90
2022-08-11T02:46:31.765Z,99.90
2022-08-11T02:49:32.148Z,99.90
2022-08-11T02:52:01.820Z,99.90
2022-08-11T02:54:37.771Z,99.90
2022-08-11T02:57:23.393Z,99.90
2022-08-11T02:59:56.959Z,99.90
2022-08-11T03:02:32.721Z,99.90
2022-08-11T03:05:17.674Z,99.90
2022-08-11T03:07:56.660Z,99.90
2022-08-11T03:10:35.174Z,99.90
2022-08-11T03:13:34.099Z,99.90
2022-08-11T03:16:43.291Z,99.90
2022-08-11T03:19:22.129Z,99.90
2022-08-11T03:22:22.250Z,99.90
2022-08-11T03:24:58.008Z,99.90
2022-08-11T03:27:40.224Z,99.90
2022-08-11T03:30:07.380Z,99.90
2022-08-11T03:33:20.192Z,99.90
2022-08-11T03:36:20.756Z,99.90
2022-08-11T03:39:03.579Z,99.90
2022-08-11T03:42:02.490Z,99.90
2022-08-11T03:44:50.374Z,99.90
2022-08-11T03:47:22.988Z,99.90
2022-08-11T03:50:23.456Z,99.90
2022-08-11T03:53:09.460Z,99.90
2022-08-11T03:55:45.221Z,99.90
2022-08-11T03:58:49.563Z,99.90
2022-08-11T04:01:20.085Z,99.90
2022-08-11T04:04:18.758Z,99.90
2022-08-11T04:06:54.505Z,99.90
2022-08-11T04:10:06.072Z,99.90
2022-08-11T04:12:51.696Z,99.90
2022-08-11T04:16:11.827Z,99.90
2022-08-11T04:19:02.577Z,99.90
2022-08-11T04:21:35.648Z,99.90
2022-08-11T04:24:39.621Z,99.90
2022-08-11T04:27:37.672Z,99.90
2022-08-11T04:30:20.217Z,99.90
2022-08-11T04:32:59.964Z,99.90
2022-08-11T04:35:58.052Z,99.90
2022-08-11T04:38:49.620Z,99.90
2022-08-11T04:42:12.428Z,99.90
2022-08-11T04:45:07.382Z,99.90
2022-08-11T04:48:26.504Z,99.90
2022-08-11T04:51:41.200Z,99.90
2022-08-11T04:54:59.301Z,99.90
2022-08-11T04:58:10.640Z,99.90
2022-08-11T05:01:11.952Z,99.90
2022-08-11T05:04:46.288Z,99.90
2022-08-11T05:07:49.463Z,99.90
2022-08-11T05:10:39.858Z,99.90
2022-08-11T05:13:30.652Z,99.90
2022-08-11T05:16:28.749Z,99.90
2022-08-11T05:19:16.363Z,99.90
2022-08-11T05:22:11.431Z,99.90
2022-08-11T05:25:14.916Z,99.90
2022-08-11T05:28:38.677Z,99.90
2022-08-11T05:31:32.601Z,99.90
2022-08-11T05:34:36.733Z,99.90
2022-08-11T05:37:26.111Z,99.90
2022-08-11T05:40:37.000Z,99.90
2022-08-11T05:43:31.418Z,99.90
2022-08-11T05:46:23.861Z,99.90
2022-08-11T05:49:10.944Z,99.90
2022-08-11T05:52:05.406Z,99.90
2022-08-11T05:55:06.325Z,99.90
2022-08-11T05:57:45.487Z,99.90
2022-08-11T06:00:19.958Z,99.90
2022-08-11T06:03:07.567Z,99.90
2022-08-11T06:05:38.453Z,99.90
2022-08-11T06:08:12.821Z,99.90
2022-08-11T06:10:42.797Z,99.90
2022-08-11T06:13:14.668Z,99.90
2022-08-11T06:15:47.251Z,99.90
2022-08-11T06:18:15.500Z,99.90
2022-08-11T06:20:55.271Z,99.90
2022-08-11T06:23:24.075Z,99.90
2022-08-11T06:25:53.328Z,99.90
2022-08-11T06:28:33.061Z,99.90
2022-08-11T06:31:01.059Z,99.90
2022-08-11T06:33:39.842Z,99.90
2022-08-11T06:36:15.608Z,99.90
2022-08-11T06:38:42.516Z,99.90
2022-08-11T06:41:30.458Z,99.90
2022-08-11T06:44:05.674Z,99.90
2022-08-11T06:46:39.105Z,99.90
2022-08-11T06:49:30.760Z,99.80
2022-08-11T06:52:34.597Z,99.30
2022-08-11T06:55:57.281Z,99.00
2022-08-11T06:58:58.829Z,98.90
2022-08-11T07:01:46.710Z,98.50
2022-08-11T07:04:27.906Z,98.30
2022-08-11T07:07:14.740Z,97.60
2022-08-11T07:10:06.544Z,97.30
2022-08-11T07:13:01.585Z,97.00
2022-08-11T07:16:11.263Z,96.00
2022-08-11T07:18:52.353Z,95.80
2022-08-11T07:22:03.073Z,95.10
2022-08-11T07:25:15.622Z,94.90
2022-08-11T07:28:10.437Z,94.60
2022-08-11T07:30:42.171Z,94.00
2022-08-11T07:33:16.002Z,93.60
2022-08-11T07:36:03.597Z,93.20
2022-08-11T07:38:50.960Z,92.50
2022-08-11T07:41:20.086Z,92.60
2022-08-11T07:43:50.484Z,92.60
2022-08-11T07:46:37.056Z,92.50
2022-08-11T07:49:25.189Z,92.40
2022-08-11T07:52:14.113Z,92.30
2022-08-11T07:54:44.007Z,92.10
2022-08-11T07:58:14.289Z,91.70
2022-08-11T08:00:43.828Z,91.60
2022-08-11T08:03:39.255Z,91.40
2022-08-11T08:06:41.631Z,91.00
2022-08-11T08:09:31.650Z,91.10
2022-08-11T08:12:23.046Z,90.40
2022-08-11T08:15:12.584Z,89.70
2022-08-11T08:18:09.071Z,89.30
2022-08-11T08:20:56.870Z,90.00
2022-08-11T08:23:34.133Z,91.00
2022-08-11T08:26:27.193Z,91.50
2022-08-11T08:29:20.769Z,91.90
2022-08-11T08:31:49.564Z,92.30
2022-08-11T08:34:17.999Z,92.40
2022-08-11T08:36:47.401Z,92.20
2022-08-11T08:39:20.736Z,92.00
2022-08-11T08:41:56.720Z,92.00
2022-08-11T08:44:38.540Z,92.00
2022-08-11T08:47:10.105Z,92.00
2022-08-11T08:49:46.666Z,91.70
2022-08-11T08:52:39.424Z,91.40
2022-08-11T08:55:12.984Z,91.40
2022-08-11T08:57:42.901Z,91.30
2022-08-11T09:00:17.915Z,91.10
2022-08-11T09:02:51.942Z,90.60
2022-08-11T09:05:20.100Z,90.50
2022-08-11T09:07:51.330Z,90.30
2022-08-11T09:10:20.505Z,90.10
2022-08-11T09:12:50.454Z,90.00
2022-08-11T09:15:19.950Z,89.10
2022-08-11T09:18:03.790Z,88.30
2022-08-11T09:20:36.341Z,87.20
2022-08-11T09:24:07.952Z,86.50
2022-08-11T09:26:40.429Z,86.60
2022-08-11T09:29:10.930Z,85.80
2022-08-11T09:31:40.307Z,85.40
2022-08-11T09:34:15.192Z,84.80
2022-08-11T09:37:02.739Z,86.30
2022-08-11T09:39:56.171Z,87.40
2022-08-11T09:42:46.645Z,87.70
2022-08-11T09:45:17.299Z,87.20
2022-08-11T09:47:47.249Z,86.70
2022-08-11T09:50:17.231Z,85.90
2022-08-11T09:53:16.962Z,86.00
2022-08-11T09:55:39.618Z,84.40
2022-08-11T09:58:41.791Z,83.30
2022-08-11T10:01:02.661Z,82.30
2022-08-11T10:03:40.241Z,83.40
2022-08-11T10:06:32.973Z,82.20
2022-08-11T10:09:06.334Z,82.30
2022-08-11T10:11:36.654Z,81.10
2022-08-11T10:14:32.976Z,81.10
2022-08-11T10:17:07.469Z,80.80
2022-08-11T10:19:38.388Z,79.30
2022-08-11T10:22:27.759Z,78.70
2022-08-11T10:25:19.750Z,78.10
2022-08-11T10:28:30.740Z,78.60
2022-08-11T10:31:12.650Z,79.90
2022-08-11T10:34:00.506Z,80.90
2022-08-11T10:36:35.556Z,80.20
2022-08-11T10:39:06.471Z,81.80
2022-08-11T10:42:02.798Z,83.80
2022-08-11T10:44:43.563Z,84.80
2022-08-11T10:47:32.002Z,86.10
2022-08-11T10:50:31.355Z,86.90
2022-08-11T10:53:21.278Z,86.70
2022-08-11T10:56:07.967Z,87.10
2022-08-11T10:58:51.391Z,87.50
2022-08-11T11:01:24.421Z,87.50
2022-08-11T11:04:16.819Z,87.40
2022-08-11T11:06:55.650Z,87.20
2022-08-11T11:09:34.844Z,87.10
2022-08-11T11:12:30.772Z,87.30
2022-08-11T11:15:21.116Z,87.60
2022-08-11T11:17:56.846Z,87.80
2022-08-11T11:20:39.182Z,87.60
2022-08-11T11:23:28.115Z,87.40
2022-08-11T11:26:27.131Z,87.30
2022-08-11T11:29:25.816Z,87.00
2022-08-11T11:32:19.122Z,87.20
2022-08-11T11:35:14.528Z,87.60
2022-08-11T11:38:03.747Z,87.80
2022-08-11T11:40:33.634Z,87.70
2022-08-11T11:43:02.045Z,88.00
2022-08-11T11:45:29.450Z,88.30
2022-08-11T11:47:59.497Z,88.60
2022-08-11T11:50:32.685Z,88.50
2022-08-11T11:53:03.803Z,88.50
2022-08-11T11:55:33.052Z,88.80
2022-08-11T11:58:22.115Z,89.20
2022-08-11T12:01:09.487Z,89.90
2022-08-11T12:03:38.622Z,90.00
2022-08-11T12:06:08.013Z,90.00
2022-08-11T12:08:36.985Z,89.70
2022-08-11T12:11:25.872Z,89.70
2022-08-11T12:13:55.736Z,89.90
2022-08-11T12:16:34.410Z,89.70
2022-08-11T12:19:13.495Z,89.30
2022-08-11T12:22:02.456Z,89.50
2022-08-11T12:24:49.563Z,89.50
2022-08-11T12:27:25.065Z,89.10
2022-08-11T12:30:09.886Z,88.50
2022-08-11T12:32:40.208Z,88.90
2022-08-11T12:35:08.274Z,88.80
2022-08-11T12:37:43.812Z,88.50
2022-08-11T12:40:48.779Z,88.10
2022-08-11T12:43:41.654Z,88.00
2022-08-11T12:46:18.357Z,88.10
2022-08-11T12:49:06.577Z,88.40
2022-08-11T12:52:11.063Z,88.40
2022-08-11T12:55:13.712Z,88.30
2022-08-11T12:58:05.995Z,87.90
2022-08-11T13:00:52.151Z,87.60
2022-08-11T13:03:39.467Z,88.20
2022-08-11T13:06:08.130Z,88.60
2022-08-11T13:08:39.270Z,88.80
2022-08-11T13:11:54.582Z,88.50
2022-08-11T13:14:20.807Z,88.20
2022-08-11T13:17:07.363Z,87.80
2022-08-11T13:19:37.916Z,88.00
2022-08-11T13:22:08.191Z,88.40
2022-08-11T13:24:37.749Z,88.50
2022-08-11T13:27:05.404Z,88.40
2022-08-11T13:29:36.134Z,88.40
2022-08-11T13:32:05.249Z,88.70
2022-08-11T13:34:32.788Z,89.40
2022-08-11T13:37:05.212Z,90.00
2022-08-11T13:39:35.774Z,89.60
2022-08-11T13:42:06.291Z,89.50
2022-08-11T13:44:38.898Z,89.40
2022-08-11T13:47:08.820Z,89.60
2022-08-11T13:49:40.276Z,89.60
2022-08-11T13:52:18.678Z,89.20
2022-08-11T13:54:53.303Z,89.80
2022-08-11T13:58:07.540Z,90.10
2022-08-11T14:00:13.887Z,90.00
2022-08-11T14:02:56.603Z,90.10
2022-08-11T14:05:31.541Z,90.20
2022-08-11T14:08:07.449Z,90.10
2022-08-11T14:10:39.228Z,90.30
2022-08-11T14:13:41.203Z,90.10
2022-08-11T14:16:18.591Z,89.90
2022-08-11T14:18:50.765Z,89.70
2022-08-11T14:21:37.038Z,89.30
2022-08-11T14:24:07.872Z,89.00
2022-08-11T14:26:39.214Z,89.00
2022-08-11T14:29:17.209Z,89.20
2022-08-11T14:31:50.883Z,89.50
2022-08-11T14:34:21.742Z,89.70
2022-08-11T14:37:00.881Z,89.20
2022-08-11T14:39:30.350Z,89.20
2022-08-11T14:42:19.372Z,89.30
2022-08-11T14:45:08.103Z,89.20
2022-08-11T14:47:41.271Z,89.10
2022-08-11T14:50:16.309Z,88.70
2022-08-11T14:52:55.116Z,88.70
2022-08-11T14:55:45.029Z,88.90
2022-08-11T14:58:18.001Z,88.90
2022-08-11T15:00:51.947Z,89.20
2022-08-11T15:03:27.973Z,89.50
2022-08-11T15:06:02.939Z,89.50
2022-08-11T15:08:51.765Z,89.50
2022-08-11T15:11:41.147Z,89.40
2022-08-11T15:14:11.711Z,89.30
2022-08-11T15:17:01.305Z,89.90
2022-08-11T15:19:40.746Z,90.00
2022-08-11T15:22:28.966Z,90.00
2022-08-11T15:25:02.247Z,90.20
2022-08-11T15:27:52.834Z,90.50
2022-08-11T15:30:38.559Z,90.50
2022-08-11T15:33:27.134Z,90.60
2022-08-11T15:36:16.294Z,90.70
2022-08-11T15:38:54.980Z,90.70
2022-08-11T15:42:06.366Z,90.70
2022-08-11T15:45:02.810Z,91.10
2022-08-11T15:47:41.723Z,91.10
2022-08-11T15:50:19.814Z,91.30
2022-08-11T15:52:59.159Z,91.30
2022-08-11T15:55:28.640Z,91.30
2022-08-11T15:58:20.048Z,91.30
2022-08-11T16:01:09.947Z,91.50
2022-08-11T16:04:14.064Z,91.70
2022-08-11T16:07:07.176Z,91.80
2022-08-11T16:09:47.614Z,91.50
2022-08-11T16:12:33.025Z,91.60
2022-08-11T16:15:24.516Z,92.00
2022-08-11T16:18:06.891Z,92.50
2022-08-11T16:20:37.170Z,92.70
2022-08-11T16:23:08.536Z,92.80
2022-08-11T16:27:01.380Z,92.90
2022-08-11T16:28:25.705Z,93.00
2022-08-11T16:30:55.277Z,93.20
2022-08-11T16:33:51.329Z,93.40
2022-08-11T16:36:34.454Z,93.60
2022-08-11T16:39:04.875Z,93.90
2022-08-11T16:41:52.692Z,94.20
2022-08-11T16:44:40.104Z,94.50
2022-08-11T16:47:16.689Z,94.50
2022-08-11T16:49:52.784Z,94.50
2022-08-11T16:52:24.104Z,94.70
2022-08-11T16:54:54.177Z,94.80
2022-08-11T16:57:46.029Z,94.70
2022-08-11T17:00:16.631Z,95.00
2022-08-11T17:03:07.993Z,95.10
2022-08-11T17:05:55.408Z,95.30
2022-08-11T17:08:58.061Z,95.60
2022-08-11T17:11:52.633Z,95.50
2022-08-11T17:14:37.396Z,95.70
2022-08-11T17:17:08.776Z,95.90
2022-08-11T17:20:41.139Z,95.90
2022-08-11T17:22:49.761Z,95.80
2022-08-11T17:25:19.516Z,96.00
2022-08-11T17:27:47.587Z,96.10
2022-08-11T17:30:14.963Z,96.20
2022-08-11T17:33:07.355Z,96.20
2022-08-11T17:35:40.842Z,96.40
2022-08-11T17:38:15.753Z,96.40
2022-08-11T17:41:06.164Z,96.60
2022-08-11T17:43:52.599Z,96.60
2022-08-11T17:46:38.955Z,96.60
2022-08-11T17:49:08.357Z,96.70
2022-08-11T17:51:57.348Z,96.80
2022-08-11T17:54:44.828Z,96.80
2022-08-11T17:57:32.850Z,97.00
2022-08-11T18:00:00.779Z,97.20
2022-08-11T18:02:53.192Z,97.30
2022-08-11T18:05:23.315Z,97.40
2022-08-11T18:08:11.033Z,97.60
2022-08-11T18:10:59.188Z,97.70
2022-08-11T18:13:46.978Z,97.70
2022-08-11T18:16:33.040Z,97.80
2022-08-11T18:19:21.142Z,97.80
2022-08-11T18:22:14.893Z,98.00
2022-08-11T18:25:08.661Z,98.10
2022-08-11T18:27:57.386Z,98.20
2022-08-11T18:30:50.452Z,98.20
2022-08-11T18:34:03.868Z,98.40
2022-08-11T18:37:20.226Z,98.50
2022-08-11T18:40:14.564Z,98.60
2022-08-11T18:43:04.096Z,98.90
2022-08-11T18:46:06.681Z,99.00
2022-08-11T18:48:56.156Z,99.10
2022-08-11T18:51:44.051Z,99.30
2022-08-11T18:54:31.825Z,99.50
2022-08-11T18:57:22.374Z,99.50
2022-08-11T19:00:08.894Z,99.70
2022-08-11T19:02:58.804Z,99.70
2022-08-11T19:06:32.026Z,99.90
2022-08-11T19:09:01.285Z,99.90
2022-08-11T19:11:50.432Z,99.90
2022-08-11T19:14:37.837Z,99.90
2022-08-11T19:17:44.746Z,99.90
2022-08-11T19:20:36.036Z,99.90
2022-08-11T19:23:23.477Z,99.90
2022-08-11T19:26:09.355Z,99.90
2022-08-11T19:28:57.268Z,99.90
2022-08-11T19:31:44.946Z,99.90
2022-08-11T19:34:34.815Z,99.90
2022-08-11T19:37:24.950Z,99.90
2022-08-11T19:40:12.941Z,99.90
2022-08-11T19:43:01.913Z,99.90
2022-08-11T19:45:52.575Z,99.90
2022-08-11T19:48:43.275Z,99.90
2022-08-11T19:51:30.159Z,99.90
2022-08-11T19:54:17.096Z,99.90
2022-08-11T19:57:04.106Z,99.90
2022-08-11T19:59:51.636Z,99.90
2022-08-11T20:02:37.325Z,99.90
2022-08-11T20:05:25.144Z,99.90
2022-08-11T20:08:15.134Z,99.90
2022-08-11T20:11:04.819Z,99.90
2022-08-11T20:13:51.269Z,99.90
2022-08-11T20:16:40.321Z,99.90
2022-08-11T20:19:56.143Z,99.90
2022-08-11T20:22:37.338Z,99.90
2022-08-11T20:25:25.175Z,99.90
2022-08-11T20:28:14.225Z,99.90
2022-08-11T20:31:03.771Z,99.90
2022-08-11T20:33:51.633Z,99.90
2022-08-11T20:36:40.545Z,99.90
2022-08-11T20:39:27.479Z,99.90
2022-08-11T20:42:16.487Z,99.90
2022-08-11T20:45:03.668Z,99.90
2022-08-11T20:51:06.218Z,99.90
2022-08-11T20:54:05.714Z,99.90
2022-08-11T20:56:55.067Z,99.90
2022-08-11T20:59:56.480Z,99.90
2022-08-11T21:02:45.553Z,99.90
2022-08-11T21:06:08.198Z,99.90
2022-08-11T21:08:55.901Z,99.90
2022-08-11T21:11:45.915Z,99.90
2022-08-11T21:14:34.538Z,99.90
2022-08-11T21:17:27.896Z,99.90
2022-08-11T21:20:20.759Z,99.90
2022-08-11T21:23:23.388Z,99.90
2022-08-11T21:26:14.287Z,99.90
2022-08-11T21:29:00.620Z,99.90
2022-08-11T21:31:49.574Z,99.90
2022-08-11T21:34:38.467Z,99.90
2022-08-11T21:37:26.530Z,99.90
2022-08-11T21:40:16.962Z,99.90
2022-08-11T21:43:10.803Z,99.90
2022-08-11T21:45:57.757Z,99.90
2022-08-11T21:48:47.755Z,99.90
2022-08-11T21:51:35.134Z,99.90
2022-08-11T21:54:20.889Z,99.90
2022-08-11T21:57:09.755Z,99.90
2022-08-11T22:00:09.282Z,99.90
2022-08-11T22:02:57.515Z,99.90
2022-08-11T22:05:44.837Z,99.90
2022-08-11T22:08:31.095Z,99.90
2022-08-11T22:11:31.681Z,99.90
2022-08-11T22:14:20.101Z,99.90
2022-08-11T22:17:06.572Z,99.90
2022-08-11T22:19:56.167Z,99.90
2022-08-11T22:22:52.374Z,99.90
2022-08-11T22:25:50.847Z,99.90
2022-08-11T22:28:40.575Z,99.90
2022-08-11T22:31:37.621Z,99.90
2022-08-11T22:34:23.890Z,99.90
2022-08-11T22:37:10.365Z,99.90
2022-08-11T22:40:20.540Z,99.90
2022-08-11T22:43:09.057Z,99.90
2022-08-11T22:45:57.474Z,99.90
2022-08-11T22:48:48.371Z,99.90
2022-08-11T22:51:36.794Z,99.90
2022-08-11T22:54:23.518Z,99.90
2022-08-11T22:57:12.030Z,99.90
2022-08-11T22:59:58.710Z,99.90
2022-08-11T23:02:46.535Z,99.90
2022-08-11T23:05:33.971Z,99.90
2022-08-11T23:08:20.380Z,99.90
2022-08-11T23:11:07.702Z,99.90
2022-08-11T23:13:54.015Z,99.90
2022-08-11T23:16:40.014Z,99.90
2022-08-11T23:20:08.474Z,99.90
2022-08-11T23:22:43.827Z,99.90
2022-08-11T23:25:36.359Z,99.90
2022-08-11T23:28:23.891Z,99.90
2022-08-11T23:31:13.083Z,99.90
2022-08-11T23:34:03.375Z,99.90
2022-08-11T23:36:48.996Z,99.90
2022-08-11T23:39:37.523Z,99.90
2022-08-11T23:42:30.050Z,99.90
2022-08-11T23:45:26.052Z,99.90
2022-08-11T23:48:13.224Z,99.90
2022-08-11T23:51:02.027Z,99.90
2022-08-11T23:53:49.320Z,99.90
2022-08-11T23:56:38.192Z,99.90
2022-08-11T23:59:26.659Z,99.90
